createdAt,value
2017-09-30T00:01:40.600Z,22.33
2017-09-30T00:04:09.657Z,19.63
2017-09-30T00:06:38.720Z,20.77
2017-09-30T00:09:07.923Z,20.20
2017-09-30T00:11:36.979Z,19.13
2017-09-30T00:14:06.023Z,17.93
2017-09-30T00:16:35.078Z,18.30
2017-09-30T00:19:04.138Z,21.47
2017-09-30T00:21:34.192Z,19.80
2017-09-30T00:24:03.226Z,18.77
2017-09-30T00:26:32.295Z,16.87
2017-09-30T00:29:01.354Z,18.70
2017-09-30T00:31:31.393Z,21.13
2017-09-30T00:34:01.413Z,17.80
2017-09-30T00:36:30.454Z,20.73
2017-09-30T00:38:59.573Z,22.93
2017-09-30T00:41:28.629Z,25.90
2017-09-30T00:43:57.662Z,25.40
2017-09-30T00:46:26.721Z,25.80
2017-09-30T00:48:55.770Z,26.33
2017-09-30T00:51:24.863Z,25.90
2017-09-30T00:53:53.902Z,26.50
2017-09-30T00:56:23.003Z,26.13
2017-09-30T00:58:52.070Z,23.70
2017-09-30T01:01:21.122Z,25.53
2017-09-30T01:03:50.275Z,25.50
2017-09-30T01:06:19.407Z,26.50
2017-09-30T01:08:48.565Z,25.30
2017-09-30T01:11:19.868Z,18.67
2017-09-30T01:13:49.007Z,18.17
2017-09-30T01:16:18.103Z,19.20
2017-09-30T01:18:48.239Z,20.50
2017-09-30T01:21:17.710Z,20.60
2017-09-30T01:23:47.158Z,21.53
2017-09-30T01:26:16.610Z,21.90
2017-09-30T01:28:45.837Z,20.00
2017-09-30T01:31:15.322Z,21.53
2017-09-30T01:33:44.408Z,22.00
2017-09-30T01:36:15.514Z,20.67
2017-09-30T01:38:44.613Z,22.20
2017-09-30T01:41:13.774Z,22.30
2017-09-30T01:43:42.805Z,21.10
2017-09-30T01:46:12.003Z,22.40
2017-09-30T01:48:41.068Z,24.50
2017-09-30T01:51:10.098Z,25.10
2017-09-30T01:53:39.149Z,26.10
2017-09-30T01:56:08.202Z,25.57
2017-09-30T01:58:37.401Z,27.80
2017-09-30T02:01:06.452Z,24.83
2017-09-30T02:03:35.499Z,27.17
2017-09-30T02:06:04.558Z,30.43
2017-09-30T02:08:33.616Z,27.23
2017-09-30T02:11:02.646Z,24.73
2017-09-30T02:13:31.699Z,30.80
2017-09-30T02:16:00.767Z,32.00
2017-09-30T02:18:30.037Z,29.63
2017-09-30T02:20:59.074Z,28.87
2017-09-30T02:23:28.123Z,23.73
2017-09-30T02:25:57.207Z,21.13
2017-09-30T02:28:26.266Z,20.70
2017-09-30T02:30:56.262Z,21.20
2017-09-30T02:33:25.306Z,22.93
2017-09-30T02:35:54.359Z,21.23
2017-09-30T02:38:23.446Z,22.60
2017-09-30T02:40:52.547Z,22.23
2017-09-30T02:43:21.561Z,21.80
2017-09-30T02:45:50.628Z,20.90
2017-09-30T02:48:19.678Z,22.67
2017-09-30T02:50:48.731Z,22.77
2017-09-30T02:53:17.792Z,22.23
2017-09-30T02:55:50.170Z,24.70
2017-09-30T02:58:19.518Z,23.00
2017-09-30T03:00:48.565Z,24.50
2017-09-30T03:03:17.615Z,23.73
2017-09-30T03:05:46.682Z,24.10
2017-09-30T03:08:17.674Z,25.37
2017-09-30T03:10:46.714Z,23.83
2017-09-30T03:13:15.754Z,23.63
2017-09-30T03:15:44.812Z,26.00
2017-09-30T03:18:13.871Z,26.90
2017-09-30T03:20:43.887Z,25.87
2017-09-30T03:23:12.937Z,24.13
2017-09-30T03:25:41.995Z,24.03
2017-09-30T03:28:11.071Z,24.70
2017-09-30T03:30:40.134Z,26.27
2017-09-30T03:33:09.233Z,25.23
2017-09-30T03:35:38.286Z,24.50
2017-09-30T03:38:07.331Z,20.00
2017-09-30T03:40:36.409Z,22.80
2017-09-30T03:43:05.446Z,24.87
2017-09-30T03:45:34.489Z,21.43
2017-09-30T03:48:03.532Z,22.37
2017-09-30T03:50:32.604Z,21.97
2017-09-30T03:53:01.663Z,21.03
2017-09-30T03:55:30.744Z,19.27
2017-09-30T03:57:59.793Z,20.50
2017-09-30T04:00:28.883Z,18.17
2017-09-30T04:02:57.923Z,18.97
2017-09-30T04:05:26.977Z,17.37
2017-09-30T04:07:56.045Z,18.83
2017-09-30T04:10:25.084Z,20.37
2017-09-30T04:12:54.167Z,21.27
2017-09-30T04:15:23.211Z,20.23
2017-09-30T04:17:52.263Z,20.53
2017-09-30T04:20:21.358Z,19.67
2017-09-30T04:22:50.405Z,20.57
2017-09-30T04:25:19.458Z,18.90
2017-09-30T04:27:48.518Z,19.53
2017-09-30T04:30:17.588Z,22.70
2017-09-30T04:32:46.637Z,20.30
2017-09-30T04:35:15.690Z,21.27
2017-09-30T04:37:44.745Z,21.57
2017-09-30T04:40:13.805Z,22.17
2017-09-30T04:42:42.875Z,25.53
2017-09-30T04:45:11.947Z,23.63
2017-09-30T04:47:41.003Z,24.60
2017-09-30T04:50:10.070Z,27.00
2017-09-30T04:52:39.119Z,29.90
2017-09-30T04:55:08.282Z,26.40
2017-09-30T04:57:37.330Z,25.10
2017-09-30T05:00:06.401Z,25.03
2017-09-30T05:02:36.472Z,22.97
2017-09-30T05:05:06.491Z,28.37
2017-09-30T05:07:35.687Z,25.00
2017-09-30T05:10:04.751Z,21.43
2017-09-30T05:12:33.803Z,25.83
2017-09-30T05:15:02.895Z,29.77
2017-09-30T05:17:32.003Z,28.87
2017-09-30T05:20:03.029Z,28.33
2017-09-30T05:22:33.242Z,27.63
2017-09-30T05:25:02.287Z,25.67
2017-09-30T05:27:32.042Z,27.03
2017-09-30T05:30:01.083Z,23.40
2017-09-30T05:32:30.138Z,23.67
2017-09-30T05:35:00.230Z,23.70
2017-09-30T05:37:29.330Z,24.53
2017-09-30T05:39:58.394Z,23.63
2017-09-30T05:42:27.439Z,24.57
2017-09-30T05:44:56.487Z,23.17
2017-09-30T05:47:25.539Z,23.27
2017-09-30T05:49:54.587Z,23.20
2017-09-30T05:52:23.679Z,21.07
2017-09-30T05:54:52.727Z,19.03
2017-09-30T05:57:21.802Z,21.77
2017-09-30T05:59:50.850Z,15.60
2017-09-30T06:02:19.901Z,15.10
2017-09-30T06:04:49.029Z,15.10
2017-09-30T06:07:18.087Z,16.17
2017-09-30T06:09:47.180Z,16.23
2017-09-30T06:12:16.242Z,15.00
2017-09-30T06:14:45.324Z,14.80
2017-09-30T06:17:14.470Z,14.40
2017-09-30T06:19:43.526Z,16.77
2017-09-30T06:22:12.608Z,16.00
2017-09-30T06:24:41.681Z,15.67
2017-09-30T06:27:10.730Z,15.07
2017-09-30T06:29:39.779Z,14.10
2017-09-30T06:32:08.862Z,15.40
2017-09-30T06:34:38.020Z,13.43
2017-09-30T06:37:07.172Z,15.67
2017-09-30T06:39:36.434Z,14.43
2017-09-30T06:42:05.475Z,15.03
2017-09-30T06:44:34.655Z,13.80
2017-09-30T06:47:03.715Z,14.43
2017-09-30T06:49:32.943Z,13.93
2017-09-30T06:52:01.979Z,14.40
2017-09-30T06:54:31.027Z,14.97
2017-09-30T06:57:00.070Z,13.57
2017-09-30T06:59:29.470Z,13.60
2017-09-30T07:01:58.538Z,13.17
2017-09-30T07:04:27.602Z,12.90
2017-09-30T07:06:56.672Z,12.13
2017-09-30T07:09:25.723Z,12.30
2017-09-30T07:11:54.784Z,11.53
2017-09-30T07:14:23.895Z,11.00
2017-09-30T07:16:52.946Z,11.63
2017-09-30T07:19:22.041Z,11.40
2017-09-30T07:21:51.100Z,11.77
2017-09-30T07:24:20.151Z,9.77
2017-09-30T07:26:49.206Z,10.20
2017-09-30T07:29:18.263Z,10.07
2017-09-30T07:31:47.320Z,10.13
2017-09-30T07:34:16.380Z,11.10
2017-09-30T07:36:45.426Z,9.67
2017-09-30T07:39:14.493Z,10.00
2017-09-30T07:41:43.542Z,10.00
2017-09-30T07:44:12.588Z,8.20
2017-09-30T07:46:41.650Z,8.30
2017-09-30T07:49:10.806Z,9.83
2017-09-30T07:51:39.893Z,10.67
2017-09-30T07:54:09.108Z,10.20
2017-09-30T07:56:38.297Z,10.37
2017-09-30T07:59:07.324Z,7.83
2017-09-30T08:01:36.455Z,9.10
2017-09-30T08:04:05.499Z,7.47
2017-09-30T08:06:34.553Z,7.27
2017-09-30T08:09:03.606Z,7.07
2017-09-30T08:11:32.644Z,7.20
2017-09-30T08:14:01.847Z,6.40
2017-09-30T08:16:30.886Z,6.73
2017-09-30T08:18:59.934Z,6.27
2017-09-30T08:21:28.987Z,7.00
2017-09-30T08:23:58.043Z,7.70
2017-09-30T08:26:29.100Z,6.83
2017-09-30T08:28:59.411Z,7.23
2017-09-30T08:31:28.493Z,14.80
2017-09-30T08:33:57.528Z,7.03
2017-09-30T08:36:26.566Z,8.00
2017-09-30T08:38:55.661Z,7.70
2017-09-30T08:41:24.699Z,6.80
2017-09-30T08:43:53.784Z,6.80
2017-09-30T08:46:22.839Z,6.70
2017-09-30T08:48:51.907Z,6.43
2017-09-30T08:51:20.980Z,6.00
2017-09-30T08:53:50.031Z,6.60
2017-09-30T08:56:19.070Z,7.00
2017-09-30T08:58:48.132Z,6.50
2017-09-30T09:01:17.225Z,6.50
2017-09-30T09:03:46.253Z,7.23
2017-09-30T09:06:15.321Z,6.30
2017-09-30T09:08:44.374Z,6.40
2017-09-30T09:11:13.428Z,6.20
2017-09-30T09:13:42.526Z,6.20
2017-09-30T09:16:11.570Z,5.83
2017-09-30T09:18:40.624Z,6.80
2017-09-30T09:21:09.701Z,6.23
2017-09-30T09:23:43.975Z,5.97
2017-09-30T09:26:18.238Z,7.20
2017-09-30T09:28:53.576Z,6.03
2017-09-30T09:31:28.313Z,6.10
2017-09-30T09:34:03.758Z,5.93
2017-09-30T09:36:39.424Z,5.53
2017-09-30T09:39:14.974Z,6.17
2017-09-30T09:41:49.967Z,6.43
2017-09-30T09:44:24.194Z,5.07
2017-09-30T09:46:59.733Z,6.10
2017-09-30T09:49:35.999Z,5.67
2017-09-30T09:52:10.796Z,4.80
2017-09-30T09:54:45.661Z,6.47
2017-09-30T09:57:21.300Z,5.20
2017-09-30T09:59:57.963Z,5.27
2017-09-30T10:02:32.288Z,5.40
2017-09-30T10:05:09.938Z,4.77
2017-09-30T10:07:45.122Z,5.60
2017-09-30T10:10:21.618Z,4.40
2017-09-30T10:12:55.096Z,5.27
2017-09-30T10:15:31.151Z,4.70
2017-09-30T10:18:05.978Z,4.40
2017-09-30T10:20:41.810Z,5.13
2017-09-30T10:23:15.259Z,5.23
2017-09-30T10:25:52.350Z,4.50
2017-09-30T10:28:27.140Z,5.07
2017-09-30T10:31:02.356Z,3.93
2017-09-30T10:33:37.252Z,4.67
2017-09-30T10:36:12.532Z,4.90
2017-09-30T10:38:46.728Z,4.60
2017-09-30T10:41:21.660Z,6.00
2017-09-30T10:43:56.697Z,8.60
2017-09-30T10:46:31.709Z,5.10
2017-09-30T10:49:06.534Z,4.57
2017-09-30T10:51:42.203Z,5.33
2017-09-30T10:54:15.878Z,4.40
2017-09-30T10:56:49.967Z,4.73
2017-09-30T10:59:25.460Z,4.70
2017-09-30T11:01:55.089Z,4.80
2017-09-30T11:04:24.429Z,5.23
2017-09-30T11:06:53.487Z,5.23
2017-09-30T11:09:22.629Z,4.90
2017-09-30T11:11:52.411Z,4.90
2017-09-30T11:14:21.645Z,4.70
2017-09-30T11:16:50.712Z,5.10
2017-09-30T11:19:19.746Z,5.03
2017-09-30T11:21:49.112Z,4.70
2017-09-30T11:24:18.210Z,4.80
2017-09-30T11:26:47.231Z,5.10
2017-09-30T11:29:16.288Z,4.63
2017-09-30T11:31:45.346Z,4.57
2017-09-30T11:34:14.382Z,4.53
2017-09-30T11:36:43.430Z,4.60
2017-09-30T11:39:12.468Z,5.70
2017-09-30T11:41:41.538Z,5.80
2017-09-30T11:44:10.588Z,4.70
2017-09-30T11:46:39.667Z,5.27
2017-09-30T11:49:08.769Z,5.00
2017-09-30T11:51:40.407Z,5.37
2017-09-30T11:54:09.455Z,6.40
2017-09-30T11:56:38.505Z,5.00
2017-09-30T11:59:07.567Z,4.93
2017-09-30T12:01:36.622Z,5.60
2017-09-30T12:04:05.707Z,8.30
2017-09-30T12:06:34.876Z,8.67
2017-09-30T12:09:03.915Z,5.27
2017-09-30T12:11:40.997Z,5.30
2017-09-30T12:14:12.181Z,5.30
2017-09-30T12:16:41.275Z,5.60
2017-09-30T12:19:10.342Z,5.13
2017-09-30T12:21:39.390Z,5.47
2017-09-30T12:24:08.496Z,5.43
2017-09-30T12:26:37.522Z,4.77
2017-09-30T12:29:06.723Z,4.90
2017-09-30T12:31:35.799Z,5.13
2017-09-30T12:34:04.856Z,5.50
2017-09-30T12:36:34.122Z,5.17
2017-09-30T12:39:03.151Z,5.40
2017-09-30T12:41:32.224Z,5.53
2017-09-30T12:44:01.274Z,5.47
2017-09-30T12:46:30.781Z,4.70
2017-09-30T12:48:59.846Z,5.30
2017-09-30T12:51:28.970Z,5.43
2017-09-30T12:53:58.034Z,6.00
2017-09-30T12:56:27.082Z,5.27
2017-09-30T12:58:56.226Z,5.70
2017-09-30T13:01:25.586Z,5.10
2017-09-30T13:03:54.682Z,5.50
2017-09-30T13:06:23.769Z,6.70
2017-09-30T13:08:52.804Z,5.20
2017-09-30T13:11:21.984Z,5.70
2017-09-30T13:13:51.024Z,5.70
2017-09-30T13:16:20.102Z,5.97
2017-09-30T13:18:49.152Z,5.43
2017-09-30T13:21:18.245Z,6.43
2017-09-30T13:23:47.398Z,7.00
2017-09-30T13:26:16.439Z,6.40
2017-09-30T13:28:45.603Z,6.07
2017-09-30T13:31:14.639Z,5.80
2017-09-30T13:33:43.793Z,5.70
2017-09-30T13:36:12.871Z,6.17
2017-09-30T13:38:41.950Z,5.67
2017-09-30T13:41:11.109Z,5.87
2017-09-30T13:43:40.634Z,5.40
2017-09-30T13:46:09.687Z,6.00
2017-09-30T13:48:38.996Z,5.10
2017-09-30T13:51:08.063Z,4.40
2017-09-30T13:53:38.335Z,4.90
2017-09-30T13:56:08.154Z,5.33
2017-09-30T13:58:43.681Z,5.10
2017-09-30T14:01:17.591Z,5.67
2017-09-30T14:03:46.723Z,5.13
2017-09-30T14:06:15.764Z,5.00
2017-09-30T14:08:44.906Z,5.13
2017-09-30T14:11:13.951Z,5.20
2017-09-30T14:13:42.975Z,5.20
2017-09-30T14:16:12.038Z,5.60
2017-09-30T14:18:41.179Z,5.00
2017-09-30T14:21:10.222Z,5.67
2017-09-30T14:23:41.220Z,6.67
2017-09-30T14:26:12.822Z,5.47
2017-09-30T14:28:41.946Z,8.17
2017-09-30T14:31:11.007Z,7.67
2017-09-30T14:33:40.081Z,8.27
2017-09-30T14:36:09.324Z,9.80
2017-09-30T14:38:38.365Z,9.60
2017-09-30T14:41:07.422Z,9.80
2017-09-30T14:43:36.501Z,9.80
2017-09-30T14:46:05.593Z,12.70
2017-09-30T14:48:34.671Z,12.80
2017-09-30T14:51:03.750Z,12.40
2017-09-30T14:53:32.803Z,13.00
2017-09-30T14:56:02.139Z,13.40
2017-09-30T14:58:31.343Z,13.20
2017-09-30T15:01:00.411Z,14.10
2017-09-30T15:03:29.480Z,14.97
2017-09-30T15:05:58.554Z,14.63
2017-09-30T15:08:28.918Z,18.40
2017-09-30T15:10:58.067Z,31.17
2017-09-30T15:13:27.133Z,20.37
2017-09-30T15:15:56.172Z,22.07
2017-09-30T15:18:25.263Z,21.07
2017-09-30T15:20:54.998Z,15.30
2017-09-30T15:23:24.138Z,15.57
2017-09-30T15:25:53.270Z,16.10
2017-09-30T15:28:22.370Z,14.60
2017-09-30T15:30:51.551Z,14.33
2017-09-30T15:33:20.657Z,14.50
2017-09-30T15:35:49.758Z,14.97
2017-09-30T15:38:18.799Z,15.23
2017-09-30T15:40:47.843Z,15.93
2017-09-30T15:43:17.808Z,15.80
2017-09-30T15:45:46.854Z,33.97
2017-09-30T15:48:16.691Z,19.53
2017-09-30T15:50:45.754Z,41.37
2017-09-30T15:53:14.898Z,59.80
2017-09-30T15:55:43.995Z,22.60
2017-09-30T15:58:13.046Z,20.00
2017-09-30T16:00:42.099Z,19.40
2017-09-30T16:03:11.180Z,17.30
2017-09-30T16:05:40.294Z,16.07
2017-09-30T16:08:09.396Z,15.17
2017-09-30T16:10:38.501Z,15.40
2017-09-30T16:13:07.600Z,15.33
2017-09-30T16:15:36.688Z,15.43
2017-09-30T16:18:05.738Z,16.50
2017-09-30T16:20:34.799Z,17.57
2017-09-30T16:23:05.932Z,16.63
2017-09-30T16:25:34.971Z,15.30
2017-09-30T16:28:04.068Z,14.73
2017-09-30T16:30:33.118Z,15.10
2017-09-30T16:33:02.173Z,15.40
2017-09-30T16:35:31.279Z,14.27
2017-09-30T16:38:01.225Z,14.60
2017-09-30T16:40:30.282Z,14.53
2017-09-30T16:42:59.331Z,13.77
2017-09-30T16:45:28.405Z,12.40
2017-09-30T16:47:57.494Z,14.00
2017-09-30T16:50:26.549Z,13.33
2017-09-30T16:52:55.612Z,13.30
2017-09-30T16:55:24.654Z,13.87
2017-09-30T16:57:54.666Z,13.80
2017-09-30T17:00:23.755Z,15.13
2017-09-30T17:02:52.799Z,14.37
2017-09-30T17:05:21.890Z,13.50
2017-09-30T17:07:50.948Z,14.17
2017-09-30T17:10:20.001Z,13.67
2017-09-30T17:12:49.992Z,14.60
2017-09-30T17:15:19.046Z,14.87
2017-09-30T17:17:48.471Z,15.33
2017-09-30T17:20:17.487Z,14.50
2017-09-30T17:22:46.529Z,12.93
2017-09-30T17:25:15.616Z,13.73
2017-09-30T17:27:44.711Z,13.13
2017-09-30T17:30:13.763Z,14.00
2017-09-30T17:32:42.827Z,14.00
2017-09-30T17:35:11.890Z,14.27
2017-09-30T17:37:40.964Z,13.93
2017-09-30T17:40:10.009Z,13.73
2017-09-30T17:42:39.075Z,13.60
2017-09-30T17:45:08.126Z,14.87
2017-09-30T17:47:37.225Z,13.57
2017-09-30T17:50:06.276Z,13.30
2017-09-30T17:52:35.318Z,14.50
2017-09-30T17:55:04.425Z,12.73
2017-09-30T17:57:33.470Z,13.17
2017-09-30T18:00:02.684Z,15.80
2017-09-30T18:02:31.730Z,15.00
2017-09-30T18:05:00.775Z,12.57
2017-09-30T18:07:29.871Z,12.87
2017-09-30T18:09:59.892Z,11.73
2017-09-30T18:12:28.933Z,11.80
2017-09-30T18:14:57.990Z,10.40
2017-09-30T18:17:27.093Z,12.33
2017-09-30T18:19:56.150Z,11.07
2017-09-30T18:22:26.215Z,11.97
2017-09-30T18:24:55.274Z,11.50
2017-09-30T18:27:24.318Z,12.57
2017-09-30T18:29:53.374Z,9.73
2017-09-30T18:32:22.414Z,11.40
2017-09-30T18:34:53.578Z,11.90
2017-09-30T18:37:22.654Z,9.93
2017-09-30T18:39:52.671Z,10.70
2017-09-30T18:42:21.725Z,10.80
2017-09-30T18:44:50.774Z,12.73
2017-09-30T18:47:19.828Z,11.40
2017-09-30T18:49:48.875Z,11.23
2017-09-30T18:52:17.958Z,10.27
2017-09-30T18:54:47.020Z,11.60
2017-09-30T18:57:16.086Z,10.83
2017-09-30T18:59:45.147Z,11.20
2017-09-30T19:02:14.230Z,10.80
2017-09-30T19:04:43.282Z,11.30
2017-09-30T19:07:12.351Z,11.80
2017-09-30T19:09:41.402Z,11.43
2017-09-30T19:12:10.557Z,11.23
2017-09-30T19:14:39.614Z,12.77
2017-09-30T19:17:08.669Z,11.40
2017-09-30T19:19:37.733Z,13.53
2017-09-30T19:22:06.776Z,12.67
2017-09-30T19:24:35.846Z,11.40
2017-09-30T19:27:04.903Z,11.23
2017-09-30T19:29:33.962Z,14.70
2017-09-30T19:32:03.033Z,14.20
2017-09-30T19:34:32.102Z,13.93
2017-09-30T19:37:01.175Z,15.23
2017-09-30T19:39:30.222Z,13.70
2017-09-30T19:42:00.272Z,14.50
2017-09-30T19:44:29.327Z,13.87
2017-09-30T19:46:58.510Z,15.47
2017-09-30T19:49:27.584Z,14.90
2017-09-30T19:51:57.690Z,15.03
2017-09-30T19:54:26.756Z,15.37
2017-09-30T19:56:55.829Z,14.90
2017-09-30T19:59:24.878Z,14.17
2017-09-30T20:01:53.966Z,13.90
2017-09-30T20:04:23.006Z,14.10
2017-09-30T20:06:52.110Z,13.53
2017-09-30T20:09:21.158Z,13.53
2017-09-30T20:11:50.207Z,13.33
2017-09-30T20:14:19.274Z,13.77
2017-09-30T20:16:48.379Z,13.80
2017-09-30T20:19:17.435Z,14.23
2017-09-30T20:21:46.475Z,14.00
2017-09-30T20:24:15.549Z,15.47
2017-09-30T20:26:44.643Z,16.40
2017-09-30T20:29:13.721Z,17.53
2017-09-30T20:31:42.829Z,17.07
2017-09-30T20:34:11.901Z,14.30
2017-09-30T20:36:40.950Z,9.70
2017-09-30T20:39:09.994Z,7.43
2017-09-30T20:41:39.057Z,6.20
2017-09-30T20:44:08.112Z,7.70
2017-09-30T20:46:37.153Z,6.20
2017-09-30T20:49:06.250Z,5.60
2017-09-30T20:51:35.299Z,6.10
2017-09-30T20:54:04.354Z,6.17
2017-09-30T20:56:33.409Z,7.97
2017-09-30T20:59:02.501Z,7.13
2017-09-30T21:01:31.544Z,5.23
2017-09-30T21:04:02.595Z,5.73
2017-09-30T21:06:31.624Z,5.27
2017-09-30T21:09:00.716Z,4.93
2017-09-30T21:11:29.755Z,5.10
2017-09-30T21:13:58.803Z,5.50
2017-09-30T21:16:27.966Z,5.63
2017-09-30T21:18:59.131Z,6.83
2017-09-30T21:21:28.151Z,5.60
2017-09-30T21:23:57.191Z,6.30
2017-09-30T21:26:26.239Z,5.47
2017-09-30T21:28:55.289Z,5.40
2017-09-30T21:31:24.393Z,5.80
2017-09-30T21:33:54.024Z,6.00
2017-09-30T21:36:23.067Z,6.47
2017-09-30T21:38:52.128Z,6.10
2017-09-30T21:41:21.170Z,6.13
2017-09-30T21:43:50.408Z,6.33
2017-09-30T21:46:19.463Z,6.37
2017-09-30T21:48:48.497Z,6.40
2017-09-30T21:51:17.547Z,6.10
2017-09-30T21:53:46.606Z,5.60
2017-09-30T21:56:15.645Z,5.90
2017-09-30T21:58:44.743Z,5.50
2017-09-30T22:01:13.790Z,5.57
2017-09-30T22:03:42.854Z,4.90
2017-09-30T22:06:11.982Z,5.20
2017-09-30T22:08:41.033Z,5.17
2017-09-30T22:11:10.067Z,5.10
2017-09-30T22:13:39.123Z,4.97
2017-09-30T22:16:08.165Z,5.30
2017-09-30T22:18:37.238Z,5.10
2017-09-30T22:21:06.306Z,6.37
2017-09-30T22:23:35.325Z,5.57
2017-09-30T22:26:04.364Z,5.80
2017-09-30T22:28:33.431Z,5.40
2017-09-30T22:31:02.504Z,5.53
2017-09-30T22:33:31.580Z,7.07
2017-09-30T22:36:00.618Z,6.80
2017-09-30T22:38:29.662Z,6.67
2017-09-30T22:40:58.740Z,7.07
2017-09-30T22:43:27.775Z,6.50
2017-09-30T22:45:56.827Z,7.20
2017-09-30T22:48:25.918Z,7.53
2017-09-30T22:50:55.010Z,6.20
2017-09-30T22:53:24.075Z,6.67
2017-09-30T22:55:53.115Z,6.67
2017-09-30T22:58:22.418Z,6.00
2017-09-30T23:00:51.452Z,7.67
2017-09-30T23:03:20.492Z,5.93
2017-09-30T23:05:49.529Z,5.87
2017-09-30T23:08:18.582Z,4.73
2017-09-30T23:10:47.642Z,5.13
2017-09-30T23:13:16.683Z,4.70
2017-09-30T23:15:45.722Z,3.80
2017-09-30T23:18:14.866Z,4.27
2017-09-30T23:20:43.911Z,3.30
2017-09-30T23:23:15.377Z,3.50
2017-09-30T23:25:44.406Z,3.53
2017-09-30T23:28:13.459Z,3.13
2017-09-30T23:30:42.507Z,2.90
2017-09-30T23:33:11.551Z,3.37
2017-09-30T23:35:40.594Z,4.20
2017-09-30T23:38:09.659Z,3.50
2017-09-30T23:40:38.708Z,4.13
2017-09-30T23:43:07.883Z,4.87
2017-09-30T23:45:36.911Z,4.03
2017-09-30T23:48:05.950Z,3.80
2017-09-30T23:50:35.019Z,4.20
2017-09-30T23:53:04.063Z,4.43
2017-09-30T23:55:33.106Z,4.53
2017-09-30T23:58:02.150Z,4.70
